createdAt,value
2022-07-25T00:00:30.970Z,19.60
2022-07-25T00:05:37.775Z,19.40
2022-07-25T00:10:40.390Z,18.98
2022-07-25T00:15:42.738Z,19.44
2022-07-25T00:20:45.147Z,19.14
2022-07-25T00:25:47.439Z,19.47
2022-07-25T00:30:50.348Z,19.27
2022-07-25T00:35:52.644Z,19.23
2022-07-25T00:40:55.890Z,19.16
2022-07-25T00:45:59.267Z,18.74
2022-07-25T00:51:01.949Z,18.75
2022-07-25T00:56:05.953Z,18.71
2022-07-25T01:01:08.296Z,17.71
2022-07-25T01:06:10.631Z,18.88
2022-07-25T01:11:13.092Z,18.10
2022-07-25T01:16:15.583Z,18.78
2022-07-25T01:21:17.916Z,18.26
2022-07-25T01:26:20.185Z,18.52
2022-07-25T01:31:22.503Z,18.63
2022-07-25T01:36:24.839Z,18.58
2022-07-25T01:41:29.170Z,18.63
2022-07-25T01:46:31.553Z,18.40
2022-07-25T01:51:33.905Z,18.34
2022-07-25T01:56:36.282Z,17.99
2022-07-25T02:01:39.170Z,18.32
2022-07-25T02:06:44.249Z,18.29
2022-07-25T02:11:46.580Z,18.29
2022-07-25T02:16:48.934Z,18.35
2022-07-25T02:21:51.501Z,18.27
2022-07-25T02:26:53.774Z,18.58
2022-07-25T02:31:56.249Z,18.37
2022-07-25T02:36:58.602Z,18.43
2022-07-25T02:42:00.900Z,18.39
2022-07-25T02:47:03.457Z,18.52
2022-07-25T02:52:05.729Z,18.09
2022-07-25T02:57:08.026Z,18.57
2022-07-25T03:02:10.892Z,18.56
2022-07-25T03:07:13.234Z,17.97
2022-07-25T03:12:15.603Z,18.50
2022-07-25T03:17:18.437Z,18.60
2022-07-25T03:22:21.627Z,18.62
2022-07-25T03:27:23.965Z,18.93
2022-07-25T03:32:26.305Z,18.94
2022-07-25T03:37:28.666Z,19.04
2022-07-25T03:42:35.494Z,19.27
2022-07-25T03:47:38.186Z,19.27
2022-07-25T03:52:40.774Z,18.73
2022-07-25T03:57:43.467Z,19.36
2022-07-25T04:02:45.846Z,19.44
2022-07-25T04:07:48.219Z,19.68
2022-07-25T04:12:50.732Z,19.77
2022-07-25T04:17:53.004Z,19.90
2022-07-25T04:22:55.993Z,18.76
2022-07-25T04:27:58.403Z,19.92
2022-07-25T04:33:00.678Z,20.31
2022-07-25T04:38:02.984Z,20.27
2022-07-25T04:43:05.527Z,20.29
2022-07-25T04:48:08.035Z,20.77
2022-07-25T04:53:10.392Z,20.49
2022-07-25T04:58:12.695Z,20.73
2022-07-25T05:03:14.949Z,20.98
2022-07-25T05:08:17.398Z,20.75
2022-07-25T05:13:20.185Z,21.15
2022-07-25T05:18:22.583Z,21.31
2022-07-25T05:23:24.873Z,21.28
2022-07-25T05:28:27.208Z,20.83
2022-07-25T05:33:30.065Z,21.30
2022-07-25T05:38:32.420Z,21.19
2022-07-25T05:43:34.737Z,21.53
2022-07-25T05:48:40.202Z,21.72
2022-07-25T05:53:42.720Z,21.75
2022-07-25T05:58:45.162Z,21.52
2022-07-25T06:03:47.474Z,21.54
2022-07-25T06:08:49.866Z,21.87
2022-07-25T06:13:52.180Z,22.27
2022-07-25T06:18:55.077Z,21.84
2022-07-25T06:24:00.400Z,21.87
2022-07-25T06:29:02.884Z,22.45
2022-07-25T06:34:05.477Z,22.54
2022-07-25T06:39:08.070Z,22.61
2022-07-25T06:44:10.464Z,22.14
2022-07-25T06:49:13.067Z,22.96
2022-07-25T06:54:15.949Z,22.85
2022-07-25T06:59:18.314Z,22.42
2022-07-25T07:04:20.746Z,22.45
2022-07-25T07:09:23.091Z,22.97
2022-07-25T07:14:25.432Z,22.85
2022-07-25T07:19:27.696Z,23.12
2022-07-25T07:24:30.222Z,23.14
2022-07-25T07:29:32.608Z,22.86
2022-07-25T07:34:34.922Z,23.15
2022-07-25T07:39:37.270Z,23.28
2022-07-25T07:44:39.763Z,23.37
2022-07-25T07:49:43.373Z,23.76
2022-07-25T07:55:06.689Z,23.69
2022-07-25T08:00:13.507Z,23.78
2022-07-25T08:05:33.911Z,23.62
2022-07-25T08:10:38.577Z,23.49
2022-07-25T08:15:41.299Z,23.77
2022-07-25T08:20:43.728Z,23.57
2022-07-25T08:25:47.215Z,23.29
2022-07-25T08:30:49.582Z,23.24
2022-07-25T08:35:53.954Z,22.73
2022-07-25T08:40:57.539Z,23.19
2022-07-25T08:46:02.605Z,23.60
2022-07-25T08:51:05.167Z,23.36
2022-07-25T08:56:14.528Z,23.32
2022-07-25T09:01:17.353Z,23.60
2022-07-25T09:06:21.292Z,23.78
2022-07-25T09:11:37.462Z,23.66
2022-07-25T09:16:44.973Z,23.54
2022-07-25T09:22:06.060Z,23.92
2022-07-25T09:27:12.422Z,24.15
2022-07-25T09:32:20.646Z,24.46
2022-07-25T09:37:27.341Z,24.32
2022-07-25T09:42:33.907Z,24.75
2022-07-25T09:47:37.968Z,24.82
2022-07-25T09:52:40.661Z,24.63
2022-07-25T09:57:45.357Z,24.50
2022-07-25T10:02:49.296Z,24.78
2022-07-25T10:07:53.852Z,24.68
2022-07-25T10:13:00.349Z,24.79
2022-07-25T10:18:04.371Z,24.59
2022-07-25T10:23:19.737Z,25.03
2022-07-25T10:28:22.021Z,24.91
2022-07-25T10:33:25.488Z,25.13
2022-07-25T10:38:28.903Z,24.93
2022-07-25T10:43:37.659Z,24.88
2022-07-25T10:48:40.282Z,25.28
2022-07-25T10:53:44.126Z,25.44
2022-07-25T10:58:53.303Z,25.44
2022-07-25T11:03:59.305Z,25.57
2022-07-25T11:09:02.014Z,25.57
2022-07-25T11:14:05.643Z,25.68
2022-07-25T11:19:24.758Z,25.96
2022-07-25T11:24:45.266Z,25.72
2022-07-25T11:29:47.637Z,25.84
2022-07-25T11:34:53.501Z,25.88
2022-07-25T11:39:56.761Z,25.81
2022-07-25T11:44:59.728Z,25.87
2022-07-25T11:50:04.754Z,25.93
2022-07-25T11:55:09.354Z,26.29
2022-07-25T12:00:17.540Z,26.31
2022-07-25T12:05:22.197Z,26.13
2022-07-25T12:10:32.825Z,26.29
2022-07-25T12:15:40.821Z,26.27
2022-07-25T12:20:44.367Z,26.03
2022-07-25T12:25:47.677Z,26.24
2022-07-25T12:30:55.954Z,26.44
2022-07-25T12:36:02.089Z,26.19
2022-07-25T12:41:07.787Z,26.34
2022-07-25T12:46:10.256Z,26.10
2022-07-25T12:51:12.747Z,25.89
2022-07-25T12:56:16.153Z,26.13
2022-07-25T13:01:18.643Z,25.72
2022-07-25T13:06:21.121Z,25.86
2022-07-25T13:11:30.369Z,25.59
2022-07-25T13:16:34.253Z,25.00
2022-07-25T13:21:36.905Z,25.46
2022-07-25T13:26:39.649Z,25.70
2022-07-25T13:31:42.425Z,25.82
2022-07-25T13:36:45.139Z,25.83
2022-07-25T13:41:47.456Z,25.74
2022-07-25T13:46:59.093Z,25.99
2022-07-25T13:52:01.848Z,25.82
2022-07-25T13:57:04.771Z,26.04
2022-07-25T14:02:07.268Z,25.96
2022-07-25T14:07:09.821Z,25.83
2022-07-25T14:12:12.253Z,26.07
2022-07-25T14:17:14.650Z,26.01
2022-07-25T14:22:17.046Z,25.89
2022-07-25T14:27:19.462Z,25.16
2022-07-25T14:32:21.822Z,25.24
2022-07-25T14:37:24.140Z,25.58
2022-07-25T14:42:26.644Z,25.91
2022-07-25T14:47:28.943Z,25.69
2022-07-25T14:52:31.327Z,25.99
2022-07-25T14:57:33.726Z,25.66
2022-07-25T15:02:36.047Z,25.18
2022-07-25T15:07:38.454Z,25.61
2022-07-25T15:12:40.968Z,25.00
2022-07-25T15:17:43.373Z,24.90
2022-07-25T15:22:45.751Z,25.50
2022-07-25T15:27:48.082Z,25.10
2022-07-25T15:32:50.426Z,25.45
2022-07-25T15:37:53.003Z,25.38
2022-07-25T15:42:55.363Z,25.07
2022-07-25T15:47:57.722Z,25.12
2022-07-25T15:53:00.153Z,25.09
2022-07-25T15:58:02.592Z,24.07
2022-07-25T16:03:05.212Z,24.79
2022-07-25T16:08:11.416Z,24.75
2022-07-25T16:13:13.823Z,24.84
2022-07-25T16:18:16.467Z,24.64
2022-07-25T16:23:18.804Z,24.87
2022-07-25T16:28:21.801Z,24.51
2022-07-25T16:33:24.579Z,24.44
2022-07-25T16:38:29.064Z,24.60
2022-07-25T16:43:31.437Z,24.41
2022-07-25T16:48:38.365Z,24.45
2022-07-25T16:53:40.748Z,24.18
2022-07-25T16:58:43.221Z,24.03
2022-07-25T17:03:45.735Z,24.29
2022-07-25T17:08:48.208Z,24.14
2022-07-25T17:13:50.589Z,24.27
2022-07-25T17:18:52.923Z,24.21
2022-07-25T17:23:56.708Z,24.06
2022-07-25T17:29:02.345Z,23.93
2022-07-25T17:34:04.964Z,24.11
2022-07-25T17:39:07.647Z,23.96
2022-07-25T17:44:12.262Z,23.84
2022-07-25T17:49:15.036Z,23.73
2022-07-25T17:54:17.543Z,23.87
2022-07-25T17:59:19.952Z,23.84
2022-07-25T18:04:25.400Z,23.29
2022-07-25T18:09:27.870Z,23.49
2022-07-25T18:14:30.806Z,23.51
2022-07-25T18:19:33.199Z,23.29
2022-07-25T18:24:35.574Z,23.10
2022-07-25T18:29:38.751Z,23.08
2022-07-25T18:34:41.096Z,22.72
2022-07-25T18:39:44.392Z,22.83
2022-07-25T18:44:46.743Z,22.67
2022-07-25T18:49:50.331Z,22.74
2022-07-25T18:54:52.825Z,22.48
2022-07-25T18:59:59.439Z,22.23
2022-07-25T19:05:06.667Z,22.15
2022-07-25T19:10:10.106Z,22.32
2022-07-25T19:15:13.311Z,21.78
2022-07-25T19:20:15.806Z,21.64
2022-07-25T19:25:18.413Z,22.05
2022-07-25T19:30:21.719Z,21.84
2022-07-25T19:35:26.300Z,21.91
2022-07-25T19:40:35.010Z,21.80
2022-07-25T19:45:39.819Z,21.42
2022-07-25T19:50:48.486Z,21.64
2022-07-25T19:55:59.857Z,21.64
2022-07-25T20:01:02.582Z,21.49
2022-07-25T20:06:08.525Z,21.47
2022-07-25T20:11:11.415Z,21.18
2022-07-25T20:16:13.794Z,21.46
2022-07-25T20:21:18.248Z,21.28
2022-07-25T20:26:20.601Z,21.08
2022-07-25T20:31:24.661Z,21.08
2022-07-25T20:36:27.138Z,21.15
2022-07-25T20:41:29.743Z,21.22
2022-07-25T20:46:36.220Z,21.16
2022-07-25T20:51:41.844Z,21.35
2022-07-25T20:56:45.324Z,21.25
2022-07-25T21:01:47.765Z,20.91
2022-07-25T21:06:50.126Z,20.47
2022-07-25T21:11:52.462Z,21.02
2022-07-25T21:16:54.920Z,21.10
2022-07-25T21:21:57.292Z,20.77
2022-07-25T21:26:59.687Z,20.88
2022-07-25T21:32:02.080Z,20.62
2022-07-25T21:37:04.420Z,20.87
2022-07-25T21:42:10.078Z,20.79
2022-07-25T21:47:13.507Z,20.89
2022-07-25T21:52:16.388Z,20.74
2022-07-25T21:57:18.870Z,20.59
2022-07-25T22:02:21.239Z,20.59
2022-07-25T22:07:25.436Z,20.46
2022-07-25T22:12:27.853Z,20.15
2022-07-25T22:17:48.526Z,20.35
2022-07-25T22:22:52.191Z,20.39
2022-07-25T22:27:54.490Z,20.19
2022-07-25T22:32:56.750Z,20.52
2022-07-25T22:37:59.072Z,20.33
2022-07-25T22:43:01.479Z,20.16
2022-07-25T22:48:04.050Z,20.13
2022-07-25T22:53:06.926Z,20.22
2022-07-25T22:58:09.421Z,20.08
2022-07-25T23:03:11.736Z,20.20
2022-07-25T23:08:14.278Z,20.25
2022-07-25T23:13:19.251Z,20.10
2022-07-25T23:18:21.577Z,20.38
2022-07-25T23:23:23.924Z,20.13
2022-07-25T23:28:26.276Z,20.01
2022-07-25T23:33:28.613Z,20.11
2022-07-25T23:38:31.590Z,20.05
2022-07-25T23:43:48.281Z,19.87
2022-07-25T23:48:56.727Z,19.80
2022-07-25T23:53:59.722Z,19.55
2022-07-25T23:59:02.086Z,19.65
